Parrish, Florida
Current Conditions -  °F | °C
As of 5:53 AM on Monday 22 Dec 2014 (Local Time) from KSRQ Reporting Station
Broken Clouds Broken Clouds  
Wind Chill: 68°   Ceiling: 12000
Heat Index: 68°   Visibility: 10mi
Dew Point: 67°   Wind: 10mph
Humidity: 96%   Direction: 90°E
Pressure: 29.93"   Gusts: NA
Location:  27.59°N, 82.42°W
Report Text: KSRQ 221053Z AUTO 09009KT 10SM SCT100 BKN120 20/19 A2993 RMK AO2 RAB36E48 SLP135 P0000 T02000194
Loading
Personal Weather Stations






























Interactive Weather Map New forecast layout! Learn more

10-Day Weather Forecast

Advertisements
Track Severe Weather on mobile